createdAt,value
2018-07-08T00:02:00.950Z,92.59
2018-07-08T00:04:30.211Z,93.76
2018-07-08T00:06:59.438Z,92.41
2018-07-08T00:09:28.706Z,90.37
2018-07-08T00:11:57.998Z,92.31
2018-07-08T00:14:27.263Z,93.20
2018-07-08T00:16:56.548Z,94.64
2018-07-08T00:19:25.822Z,94.71
2018-07-08T00:21:55.209Z,95.31
2018-07-08T00:24:25.719Z,95.93
2018-07-08T00:26:54.946Z,96.53
2018-07-08T00:29:24.204Z,97.19
2018-07-08T00:31:53.465Z,97.26
2018-07-08T00:34:22.678Z,97.74
2018-07-08T00:36:51.930Z,98.37
2018-07-08T00:39:21.163Z,98.31
2018-07-08T00:41:50.377Z,98.51
2018-07-08T00:44:19.741Z,99.04
2018-07-08T00:46:48.994Z,97.85
2018-07-08T00:49:18.226Z,97.78
2018-07-08T00:51:47.475Z,98.36
2018-07-08T00:54:16.709Z,98.91
2018-07-08T00:56:45.962Z,98.72
2018-07-08T00:59:15.225Z,98.44
2018-07-08T01:01:44.666Z,97.76
2018-07-08T01:04:13.875Z,98.44
2018-07-08T01:06:43.144Z,98.74
2018-07-08T01:09:12.455Z,98.83
2018-07-08T01:11:41.725Z,99.23
2018-07-08T01:14:10.975Z,99.13
2018-07-08T01:16:40.230Z,99.16
2018-07-08T01:19:09.491Z,99.86
2018-07-08T01:21:38.742Z,100.00
2018-07-08T01:24:08.043Z,100.00
2018-07-08T01:26:38.058Z,100.00
2018-07-08T01:29:07.291Z,100.00
2018-07-08T01:31:36.545Z,98.02
2018-07-08T01:34:05.818Z,96.78
2018-07-08T01:36:35.070Z,97.19
2018-07-08T01:39:05.433Z,95.74
2018-07-08T01:41:34.658Z,93.60
2018-07-08T01:44:04.095Z,94.66
2018-07-08T01:46:33.330Z,95.71
2018-07-08T01:49:02.590Z,96.36
2018-07-08T01:51:31.841Z,97.15
2018-07-08T01:54:01.137Z,96.62
2018-07-08T01:56:30.367Z,96.83
2018-07-08T01:58:59.693Z,96.96
2018-07-08T02:01:28.932Z,96.06
2018-07-08T02:03:58.195Z,94.24
2018-07-08T02:06:27.660Z,94.96
2018-07-08T02:08:56.906Z,96.50
2018-07-08T02:11:26.131Z,96.81
2018-07-08T02:13:55.966Z,95.23
2018-07-08T02:16:25.215Z,96.60
2018-07-08T02:18:54.557Z,96.81
2018-07-08T02:21:23.811Z,97.51
2018-07-08T02:23:53.071Z,96.31
2018-07-08T02:26:22.314Z,95.08
2018-07-08T02:28:51.625Z,95.08
2018-07-08T02:31:20.898Z,96.86
2018-07-08T02:33:50.150Z,97.59
2018-07-08T02:36:19.658Z,98.16
2018-07-08T02:38:48.916Z,98.32
2018-07-08T02:41:18.138Z,98.59
2018-07-08T02:43:47.375Z,99.24
2018-07-08T02:46:16.668Z,99.72
2018-07-08T02:48:45.969Z,100.00
2018-07-08T02:51:15.244Z,100.00
2018-07-08T02:53:44.454Z,100.00
2018-07-08T02:56:13.695Z,99.46
2018-07-08T02:58:42.955Z,97.23
2018-07-08T03:01:12.219Z,98.20
2018-07-08T03:03:41.483Z,98.49
2018-07-08T03:06:10.780Z,98.82
2018-07-08T03:08:40.023Z,99.23
2018-07-08T03:11:09.278Z,97.88
2018-07-08T03:13:38.515Z,98.45
2018-07-08T03:16:07.791Z,99.28
2018-07-08T03:18:37.086Z,99.17
2018-07-08T03:21:06.335Z,99.23
2018-07-08T03:23:35.562Z,99.71
2018-07-08T03:26:04.845Z,99.50
2018-07-08T03:28:34.050Z,98.21
2018-07-08T03:31:03.431Z,97.27
2018-07-08T03:33:32.837Z,96.71
2018-07-08T03:36:01.999Z,95.51
2018-07-08T03:38:31.240Z,95.83
2018-07-08T03:41:00.452Z,96.56
2018-07-08T03:43:29.710Z,96.79
2018-07-08T03:45:58.938Z,96.24
2018-07-08T03:48:28.202Z,94.27
2018-07-08T03:50:57.433Z,91.65
2018-07-08T03:53:26.696Z,91.52
2018-07-08T03:55:55.950Z,92.75
2018-07-08T03:58:25.251Z,93.75
2018-07-08T04:00:54.470Z,93.21
2018-07-08T04:03:23.731Z,91.29
2018-07-08T04:05:53.278Z,92.40
2018-07-08T04:08:22.530Z,90.86
2018-07-08T04:10:52.979Z,88.53
2018-07-08T04:13:22.232Z,88.72
2018-07-08T04:15:51.470Z,88.09
2018-07-08T04:18:20.719Z,89.21
2018-07-08T04:20:50.016Z,89.26
2018-07-08T04:23:19.243Z,89.02
2018-07-08T04:25:48.470Z,90.66
2018-07-08T04:28:17.751Z,88.68
2018-07-08T04:30:47.279Z,87.59
2018-07-08T04:33:16.506Z,87.10
2018-07-08T04:35:45.806Z,87.78
2018-07-08T04:38:15.059Z,83.84
2018-07-08T04:40:44.266Z,83.58
2018-07-08T04:43:13.534Z,83.78
2018-07-08T04:45:42.759Z,85.95
2018-07-08T04:48:11.971Z,85.61
2018-07-08T04:50:41.234Z,85.54
2018-07-08T04:53:10.463Z,83.97
2018-07-08T04:55:39.702Z,80.17
2018-07-08T04:58:08.928Z,78.69
2018-07-08T05:00:38.147Z,77.86
2018-07-08T05:03:07.374Z,78.28
2018-07-08T05:05:36.630Z,76.76
2018-07-08T05:08:05.831Z,79.62
2018-07-08T05:10:35.062Z,76.95
2018-07-08T05:13:04.297Z,74.80
2018-07-08T05:15:33.522Z,72.84
2018-07-08T05:18:02.931Z,73.62
2018-07-08T05:20:32.222Z,68.62
2018-07-08T05:23:02.657Z,64.88
2018-07-08T05:25:31.910Z,62.73
2018-07-08T05:28:01.205Z,61.63
2018-07-08T05:30:30.506Z,58.88
2018-07-08T05:32:59.734Z,59.98
2018-07-08T05:35:28.975Z,63.91
2018-07-08T05:37:58.241Z,67.69
2018-07-08T05:40:27.463Z,61.91
2018-07-08T05:42:56.722Z,57.17
2018-07-08T05:45:25.942Z,56.58
2018-07-08T05:47:55.186Z,61.36
2018-07-08T05:50:24.527Z,62.89
2018-07-08T05:52:53.702Z,58.21
2018-07-08T05:55:23.216Z,59.95
2018-07-08T05:57:52.424Z,61.71
2018-07-08T06:00:21.654Z,62.90
2018-07-08T06:02:50.899Z,60.92
2018-07-08T06:05:20.114Z,52.22
2018-07-08T06:07:49.345Z,46.68
2018-07-08T06:10:18.591Z,44.54
2018-07-08T06:12:47.814Z,42.19
2018-07-08T06:15:17.099Z,40.70
2018-07-08T06:17:46.288Z,39.80
2018-07-08T06:20:15.526Z,31.87
2018-07-08T06:22:44.734Z,32.42
2018-07-08T06:25:13.978Z,33.28
2018-07-08T06:27:43.213Z,36.09
2018-07-08T06:30:12.499Z,35.51
2018-07-08T06:32:41.729Z,35.26
2018-07-08T07:02:41.138Z,31.38
2018-07-08T07:05:10.483Z,38.32
2018-07-08T07:07:39.694Z,33.53
2018-07-08T07:10:09.098Z,34.06
2018-07-08T07:12:38.354Z,35.38
2018-07-08T07:15:07.857Z,33.06
2018-07-08T07:17:37.097Z,33.54
2018-07-08T07:20:06.396Z,28.94
2018-07-08T07:22:36.670Z,31.01
2018-07-08T07:25:06.331Z,32.93
2018-07-08T07:27:35.550Z,31.26
2018-07-08T07:30:05.776Z,33.91
2018-07-08T07:32:35.022Z,31.44
2018-07-08T07:35:04.275Z,31.58
2018-07-08T07:37:33.495Z,32.21
2018-07-08T07:40:02.723Z,37.23
2018-07-08T07:42:31.967Z,38.61
2018-07-08T07:45:01.196Z,38.72
2018-07-08T07:47:30.424Z,38.29
2018-07-08T07:49:59.641Z,36.86
2018-07-08T07:52:28.894Z,35.35
2018-07-08T07:54:58.140Z,35.22
2018-07-08T07:57:27.336Z,33.19
2018-07-08T07:59:56.637Z,32.77
2018-07-08T08:02:25.866Z,33.28
2018-07-08T08:04:55.093Z,31.20
2018-07-08T08:07:24.313Z,36.20
2018-07-08T08:09:53.547Z,34.71
2018-07-08T08:12:22.782Z,33.33
2018-07-08T08:14:52.013Z,30.45
2018-07-08T08:17:21.228Z,31.75
2018-07-08T08:19:50.447Z,29.47
2018-07-08T08:22:19.663Z,28.17
2018-07-08T08:24:48.902Z,31.98
2018-07-08T08:27:18.377Z,31.17
2018-07-08T08:29:47.603Z,30.70
2018-07-08T08:32:16.844Z,26.60
2018-07-08T08:34:57.796Z,29.32
2018-07-08T08:37:29.339Z,32.09
2018-07-08T08:39:58.631Z,28.04
2018-07-08T08:42:27.858Z,25.61
2018-07-08T08:44:57.758Z,27.43
2018-07-08T08:47:27.475Z,26.87
2018-07-08T08:49:56.888Z,28.43
2018-07-08T08:52:26.152Z,28.58
2018-07-08T08:54:55.691Z,29.42
2018-07-08T08:57:24.954Z,26.66
2018-07-08T08:59:54.506Z,28.89
2018-07-08T09:02:23.741Z,26.11
2018-07-08T09:04:52.959Z,24.77
2018-07-08T09:07:22.594Z,24.74
2018-07-08T09:09:51.822Z,26.97
2018-07-08T09:12:21.060Z,27.59
2018-07-08T09:14:50.287Z,26.29
2018-07-08T09:17:19.567Z,26.91
2018-07-08T09:19:48.765Z,29.15
2018-07-08T09:22:18.012Z,27.32
2018-07-08T09:24:47.229Z,29.50
2018-07-08T09:27:16.465Z,27.58
2018-07-08T09:29:45.686Z,25.92
2018-07-08T09:32:14.902Z,25.50
2018-07-08T09:34:44.147Z,28.34
2018-07-08T09:37:13.353Z,28.92
2018-07-08T09:39:42.595Z,28.08
2018-07-08T09:42:11.820Z,27.76
2018-07-08T09:44:41.047Z,27.01
2018-07-08T09:47:10.279Z,26.22
2018-07-08T09:49:39.499Z,32.38
2018-07-08T09:52:08.734Z,32.41
2018-07-08T09:54:37.962Z,32.05
2018-07-08T09:57:07.205Z,30.66
2018-07-08T09:59:36.406Z,36.17
2018-07-08T10:02:06.659Z,39.54
2018-07-08T10:04:35.938Z,41.25
2018-07-08T10:07:05.247Z,37.15
2018-07-08T10:09:34.473Z,37.49
2018-07-08T10:12:03.686Z,33.50
2018-07-08T10:14:32.939Z,37.28
2018-07-08T10:17:02.154Z,38.54
2018-07-08T10:19:31.432Z,41.88
2018-07-08T10:22:00.648Z,43.14
2018-07-08T10:24:29.874Z,42.28
2018-07-08T10:28:20.862Z,43.80
2018-07-08T10:30:50.415Z,43.24
2018-07-08T10:33:19.730Z,34.98
2018-07-08T10:35:58.370Z,35.13
2018-07-08T10:38:27.705Z,38.45
2018-07-08T10:40:56.974Z,38.66
2018-07-08T10:43:26.237Z,35.38
2018-07-08T10:45:55.483Z,37.73
2018-07-08T10:48:24.728Z,37.32
2018-07-08T10:50:53.955Z,39.30
2018-07-08T10:53:23.283Z,42.04
2018-07-08T10:55:52.514Z,37.05
2018-07-08T10:58:21.787Z,34.93
2018-07-08T11:00:51.003Z,36.72
2018-07-08T11:03:20.231Z,38.27
2018-07-08T11:05:49.513Z,38.97
2018-07-08T11:08:18.758Z,38.83
2018-07-08T11:10:48.037Z,34.50
2018-07-08T11:13:17.215Z,33.45
2018-07-08T11:15:46.446Z,34.94
2018-07-08T11:18:15.687Z,31.34
2018-07-08T11:20:44.917Z,31.36
2018-07-08T11:23:14.140Z,29.67
2018-07-08T11:25:43.384Z,30.80
2018-07-08T11:28:13.872Z,32.36
2018-07-08T11:30:43.114Z,33.16
2018-07-08T11:33:12.368Z,38.53
2018-07-08T11:35:41.623Z,39.44
2018-07-08T11:38:10.870Z,41.40
2018-07-08T11:40:40.074Z,41.87
2018-07-08T11:43:09.305Z,40.14
2018-07-08T11:45:38.557Z,38.41
2018-07-08T11:48:07.843Z,38.48
2018-07-08T11:50:37.043Z,40.43
2018-07-08T11:53:06.314Z,38.32
2018-07-08T11:55:35.536Z,38.05
2018-07-08T11:58:05.023Z,35.90
2018-07-08T12:00:34.252Z,34.95
2018-07-08T12:03:03.507Z,33.63
2018-07-08T12:05:32.755Z,30.43
2018-07-08T12:08:02.043Z,32.13
2018-07-08T12:10:31.282Z,34.90
2018-07-08T12:13:00.529Z,34.40
2018-07-08T12:15:29.785Z,31.86
2018-07-08T12:17:59.022Z,32.75
2018-07-08T12:20:28.255Z,32.21
2018-07-08T12:22:57.531Z,31.19
2018-07-08T12:25:26.840Z,34.25
2018-07-08T12:27:56.114Z,35.30
2018-07-08T12:30:25.754Z,35.00
2018-07-08T12:32:54.986Z,33.98
2018-07-08T12:35:24.220Z,35.70
2018-07-08T12:37:53.581Z,37.36
2018-07-08T12:40:22.838Z,35.87
2018-07-08T12:42:52.100Z,37.57
2018-07-08T12:45:21.323Z,40.02
2018-07-08T12:47:50.574Z,37.48
2018-07-08T12:50:19.795Z,34.90
2018-07-08T12:52:49.062Z,36.14
2018-07-08T12:55:18.310Z,38.11
2018-07-08T12:57:48.502Z,38.42
2018-07-08T13:00:17.748Z,36.25
2018-07-08T13:02:46.999Z,36.14
2018-07-08T13:05:16.241Z,34.51
2018-07-08T13:07:45.577Z,34.71
2018-07-08T13:10:14.818Z,34.63
2018-07-08T13:12:44.086Z,37.16
2018-07-08T13:15:13.335Z,36.80
2018-07-08T13:17:42.575Z,38.25
2018-07-08T13:20:11.844Z,40.33
2018-07-08T13:22:41.179Z,36.83
2018-07-08T13:25:10.414Z,35.58
2018-07-08T13:27:39.710Z,35.29
2018-07-08T13:30:08.943Z,35.26
2018-07-08T13:32:38.410Z,36.01
2018-07-08T13:35:07.609Z,34.12
2018-07-08T13:37:36.931Z,36.14
2018-07-08T13:40:06.474Z,37.61
2018-07-08T13:42:35.909Z,37.14
2018-07-08T13:45:05.459Z,34.04
2018-07-08T13:47:34.720Z,36.01
2018-07-08T13:50:04.186Z,36.36
2018-07-08T13:52:34.821Z,36.39
2018-07-08T13:55:04.056Z,33.91
2018-07-08T13:57:33.282Z,35.05
2018-07-08T14:00:02.539Z,34.28
2018-07-08T14:02:31.968Z,34.94
2018-07-08T14:05:02.250Z,35.64
2018-07-08T14:07:31.513Z,35.85
2018-07-08T14:10:00.781Z,38.02
2018-07-08T14:12:30.007Z,36.64
2018-07-08T14:14:59.275Z,35.08
2018-07-08T14:17:28.507Z,32.98
2018-07-08T14:19:57.767Z,37.01
2018-07-08T14:22:27.108Z,35.72
2018-07-08T14:24:56.374Z,36.58
2018-07-08T14:27:25.779Z,36.01
2018-07-08T14:29:55.087Z,33.38
2018-07-08T14:32:24.648Z,36.11
2018-07-08T14:34:54.046Z,37.26
2018-07-08T14:37:23.270Z,37.72
2018-07-08T14:39:52.599Z,36.59
2018-07-08T14:42:21.872Z,34.19
2018-07-08T14:44:51.144Z,37.38
2018-07-08T14:47:20.667Z,34.01
2018-07-08T14:49:49.933Z,36.00
2018-07-08T14:52:20.455Z,34.35
2018-07-08T14:54:49.696Z,35.68
2018-07-08T14:57:18.964Z,34.22
2018-07-08T14:59:48.229Z,36.38
2018-07-08T15:02:17.518Z,35.39
2018-07-08T15:04:46.813Z,36.39
2018-07-08T15:07:15.807Z,35.87
2018-07-08T15:09:45.065Z,35.07
2018-07-08T15:12:14.334Z,37.80
2018-07-08T15:14:43.584Z,36.48
2018-07-08T15:17:12.827Z,39.32
2018-07-08T15:19:42.090Z,38.11
2018-07-08T15:22:11.379Z,36.71
2018-07-08T15:24:40.619Z,39.49
2018-07-08T15:27:09.936Z,38.22
2018-07-08T15:29:39.218Z,38.81
2018-07-08T15:32:08.472Z,39.92
2018-07-08T15:34:37.707Z,38.76
2018-07-08T15:37:07.111Z,36.20
2018-07-08T15:39:36.366Z,37.65
2018-07-08T15:42:05.586Z,38.22
2018-07-08T15:44:34.859Z,39.50
2018-07-08T15:47:04.176Z,37.92
2018-07-08T15:49:33.450Z,39.20
2018-07-08T15:52:02.613Z,40.53
2018-07-08T15:54:31.911Z,38.40
2018-07-08T15:57:01.143Z,39.49
2018-07-08T15:59:30.399Z,38.95
2018-07-08T16:01:59.646Z,38.52
2018-07-08T16:04:28.921Z,39.00
2018-07-08T16:06:58.178Z,41.32
2018-07-08T16:09:27.405Z,38.51
2018-07-08T16:11:56.696Z,36.74
2018-07-08T16:14:25.882Z,36.98
2018-07-08T16:16:55.111Z,36.87
2018-07-08T16:19:24.364Z,37.31
2018-07-08T16:21:53.570Z,37.29
2018-07-08T16:24:22.790Z,37.58
2018-07-08T16:26:52.438Z,38.14
2018-07-08T16:29:21.690Z,37.65
2018-07-08T16:31:50.915Z,37.09
2018-07-08T16:34:20.125Z,38.92
2018-07-08T16:36:49.351Z,39.50
2018-07-08T16:39:18.567Z,38.10
2018-07-08T16:41:47.797Z,39.44
2018-07-08T16:44:17.024Z,38.72
2018-07-08T16:46:46.240Z,37.10
2018-07-08T16:49:15.507Z,36.95
2018-07-08T16:51:44.715Z,38.31
2018-07-08T16:54:13.921Z,36.95
2018-07-08T16:56:43.287Z,36.21
2018-07-08T16:59:12.514Z,38.42
2018-07-08T17:01:41.894Z,38.27
2018-07-08T17:04:11.151Z,36.87
2018-07-08T17:06:40.406Z,38.03
2018-07-08T17:09:10.674Z,39.38
2018-07-08T17:11:40.004Z,39.10
2018-07-08T17:23:59.281Z,38.09
2018-07-08T17:29:04.674Z,39.98
2018-07-08T17:31:33.954Z,40.06
2018-07-08T17:34:03.235Z,40.45
2018-07-08T17:36:32.458Z,40.08
2018-07-08T17:39:01.738Z,41.52
2018-07-08T17:41:30.991Z,41.08
2018-07-08T17:44:00.783Z,40.16
2018-07-08T17:46:30.088Z,40.57
2018-07-08T17:48:59.217Z,39.21
2018-07-08T17:51:28.439Z,39.79
2018-07-08T17:53:57.656Z,42.26
2018-07-08T17:56:26.880Z,41.11
2018-07-08T17:58:56.207Z,40.76
2018-07-08T18:01:25.491Z,42.35
2018-07-08T18:03:54.695Z,40.76
2018-07-08T18:06:23.938Z,40.96
2018-07-08T18:08:53.211Z,41.33
2018-07-08T18:11:22.492Z,41.04
2018-07-08T18:13:52.216Z,41.63
2018-07-08T18:16:21.951Z,41.32
2018-07-08T18:18:51.162Z,41.09
2018-07-08T18:21:20.528Z,43.61
2018-07-08T18:23:49.678Z,42.41
2018-07-08T18:26:18.906Z,42.28
2018-07-08T18:28:48.150Z,43.64
2018-07-08T18:31:17.378Z,43.66
2018-07-08T18:33:46.608Z,43.27
2018-07-08T18:36:15.872Z,46.54
2018-07-08T18:38:45.111Z,44.19
2018-07-08T18:41:14.358Z,45.48
2018-07-08T18:43:43.789Z,45.94
2018-07-08T18:46:13.085Z,46.99
2018-07-08T18:48:42.269Z,47.36
2018-07-08T18:51:11.558Z,47.27
2018-07-08T18:53:40.783Z,49.47
2018-07-08T18:56:10.030Z,50.99
2018-07-08T18:58:39.283Z,52.86
2018-07-08T19:01:08.529Z,52.65
2018-07-08T19:03:37.802Z,56.28
2018-07-08T19:06:07.438Z,56.58
2018-07-08T19:08:36.703Z,57.39
2018-07-08T19:11:05.962Z,57.85
2018-07-08T19:13:36.144Z,57.82
2018-07-08T19:16:05.482Z,55.54
2018-07-08T19:18:34.733Z,56.80
2018-07-08T19:21:03.956Z,57.92
2018-07-08T19:23:33.203Z,59.80
2018-07-08T19:26:02.428Z,60.16
2018-07-08T19:28:31.694Z,62.35
2018-07-08T19:31:00.970Z,62.96
2018-07-08T19:33:30.251Z,64.25
2018-07-08T19:35:59.478Z,65.99
2018-07-08T19:38:28.693Z,67.61
2018-07-08T19:40:57.952Z,66.57
2018-07-08T19:43:27.247Z,69.21
2018-07-08T19:45:56.527Z,69.01
2018-07-08T19:48:25.835Z,68.98
2018-07-08T19:50:55.139Z,68.65
2018-07-08T19:53:24.415Z,70.88
2018-07-08T19:55:53.641Z,69.13
2018-07-08T19:58:22.888Z,67.70
2018-07-08T20:00:52.104Z,67.83
2018-07-08T20:03:21.343Z,67.76
2018-07-08T20:05:50.609Z,69.59
2018-07-08T20:08:19.911Z,70.73
2018-07-08T20:10:49.395Z,72.03
2018-07-08T20:13:18.650Z,72.01
2018-07-08T20:15:47.855Z,71.03
2018-07-08T20:18:17.263Z,73.79
2018-07-08T20:20:46.487Z,72.05
2018-07-08T20:23:15.756Z,74.92
2018-07-08T20:25:44.990Z,73.09
2018-07-08T20:28:14.280Z,75.87
2018-07-08T20:30:43.522Z,75.58
2018-07-08T20:33:12.812Z,77.26
2018-07-08T20:35:42.093Z,78.87
2018-07-08T20:38:11.346Z,79.02
2018-07-08T20:40:40.550Z,76.20
2018-07-08T20:43:09.786Z,78.05
2018-07-08T20:45:39.018Z,76.84
2018-07-08T20:48:08.321Z,78.21
2018-07-08T20:50:38.731Z,78.62
2018-07-08T20:53:08.066Z,77.55
2018-07-08T20:55:37.268Z,79.32
2018-07-08T20:58:06.547Z,77.42
2018-07-08T21:00:35.790Z,78.09
2018-07-08T21:03:05.042Z,78.31
2018-07-08T21:05:34.335Z,80.42
2018-07-08T21:08:03.566Z,81.66
2018-07-08T21:10:33.047Z,81.86
2018-07-08T21:13:02.342Z,81.85
2018-07-08T21:15:31.587Z,82.06
2018-07-08T21:18:00.866Z,83.37
2018-07-08T21:20:30.130Z,83.64
2018-07-08T21:22:59.890Z,83.71
2018-07-08T21:25:29.132Z,84.14
2018-07-08T21:27:58.418Z,84.65
2018-07-08T21:30:28.172Z,85.20
2018-07-08T21:32:57.410Z,84.39
2018-07-08T21:35:26.707Z,83.89
2018-07-08T21:37:55.983Z,84.03
2018-07-08T21:40:25.240Z,84.73
2018-07-08T21:42:54.774Z,83.01
2018-07-08T21:45:24.282Z,82.10
2018-07-08T21:47:53.527Z,83.33
2018-07-08T21:50:22.779Z,84.30
2018-07-08T21:52:52.000Z,84.84
2018-07-08T21:55:21.463Z,85.81
2018-07-08T21:57:50.762Z,87.01
2018-07-08T22:00:28.780Z,86.56
2018-07-08T22:02:58.058Z,87.02
2018-07-08T22:05:28.286Z,85.46
2018-07-08T22:08:05.128Z,86.70
2018-07-08T22:10:34.610Z,87.03
2018-07-08T22:13:04.185Z,87.53
2018-07-08T22:15:33.437Z,87.93
2018-07-08T22:18:02.696Z,85.27
2018-07-08T22:20:31.940Z,84.33
2018-07-08T22:23:01.232Z,86.15
2018-07-08T22:25:30.457Z,86.52
2018-07-08T22:27:59.707Z,86.76
2018-07-08T22:30:28.951Z,87.65
2018-07-08T22:32:58.264Z,87.89
2018-07-08T22:35:28.658Z,85.40
2018-07-08T22:37:57.952Z,86.65
2018-07-08T22:40:27.163Z,88.22
2018-07-08T22:42:56.405Z,88.68
2018-07-08T22:45:25.623Z,88.65
2018-07-08T22:47:54.862Z,89.06
2018-07-08T22:50:24.115Z,89.05
2018-07-08T22:52:53.350Z,89.87
2018-07-08T22:55:22.602Z,88.98
2018-07-08T22:57:51.813Z,89.11
2018-07-08T23:00:37.879Z,88.36
2018-07-08T23:03:49.395Z,87.17
2018-07-08T23:06:19.580Z,89.64
2018-07-08T23:08:49.614Z,90.09
2018-07-08T23:11:19.327Z,90.11
2018-07-08T23:13:49.619Z,90.79
2018-07-08T23:16:19.106Z,90.34
2018-07-08T23:18:48.340Z,90.26
2018-07-08T23:21:17.633Z,91.38
2018-07-08T23:23:46.867Z,91.70
2018-07-08T23:26:16.119Z,91.37
2018-07-08T23:28:45.345Z,91.44
2018-07-08T23:31:14.707Z,91.59
2018-07-08T23:33:43.922Z,92.19
2018-07-08T23:36:13.368Z,92.17
2018-07-08T23:38:42.578Z,92.43
2018-07-08T23:41:12.372Z,92.63
2018-07-08T23:43:41.624Z,93.44
2018-07-08T23:46:10.831Z,93.76
2018-07-08T23:48:40.080Z,94.08
2018-07-08T23:51:09.352Z,94.57
2018-07-08T23:53:38.815Z,94.43
2018-07-08T23:56:08.051Z,94.72
2018-07-08T23:58:37.271Z,94.94
